createdAt,value
2024-03-13T00:00:23.718Z,101259.59
2024-03-13T00:01:26.052Z,101248.75
2024-03-13T00:02:29.834Z,101252.38
2024-03-13T00:03:33.286Z,101257.81
2024-03-13T00:04:56.071Z,101249.69
2024-03-13T00:05:57.537Z,101256.03
2024-03-13T00:07:02.287Z,101257.81
2024-03-13T00:08:04.079Z,101252.41
2024-03-13T00:09:05.668Z,101255.13
2024-03-13T00:10:09.467Z,101254.25
2024-03-13T00:11:10.960Z,101253.34
2024-03-13T00:12:15.185Z,101253.38
2024-03-13T00:13:19.456Z,101248.84
2024-03-13T00:14:21.057Z,101263.38
2024-03-13T00:15:25.361Z,101249.75
2024-03-13T00:16:28.625Z,101253.38
2024-03-13T00:17:31.461Z,101257.00
2024-03-13T00:18:33.037Z,101264.31
2024-03-13T00:19:34.608Z,101254.34
2024-03-13T00:20:38.821Z,101260.66
2024-03-13T00:21:41.698Z,101262.44
2024-03-13T00:22:45.678Z,101267.88
2024-03-13T00:23:47.171Z,101262.44
2024-03-13T00:24:53.855Z,101267.00
2024-03-13T00:25:57.272Z,101266.97
2024-03-13T00:26:58.929Z,101267.88
2024-03-13T00:28:00.591Z,101274.25
2024-03-13T00:29:05.323Z,101270.59
2024-03-13T00:30:07.714Z,101275.16
2024-03-13T00:31:09.844Z,101274.25
2024-03-13T00:32:12.615Z,101276.09
2024-03-13T00:33:14.251Z,101274.28
2024-03-13T00:34:16.296Z,101272.44
2024-03-13T00:35:17.788Z,101272.47
2024-03-13T00:36:20.422Z,101268.88
2024-03-13T00:37:22.828Z,101274.31
2024-03-13T00:38:26.968Z,101277.94
2024-03-13T00:39:28.429Z,101277.03
2024-03-13T00:40:30.144Z,101279.75
2024-03-13T00:41:31.874Z,101269.75
2024-03-13T00:42:33.897Z,101270.66
2024-03-13T00:43:35.281Z,101276.97
2024-03-13T00:44:38.362Z,101274.28
2024-03-13T00:45:39.816Z,101279.72
2024-03-13T00:46:41.589Z,101273.41
2024-03-13T00:47:43.109Z,101275.22
2024-03-13T00:48:44.626Z,101276.13
2024-03-13T00:49:46.086Z,101275.22
2024-03-13T00:50:50.757Z,101277.03
2024-03-13T00:51:52.291Z,101270.72
2024-03-13T00:52:55.863Z,101274.31
2024-03-13T00:53:57.328Z,101269.78
2024-03-13T00:54:58.792Z,101276.09
2024-03-13T00:56:00.257Z,101269.75
2024-03-13T00:57:03.055Z,101260.75
2024-03-13T00:58:04.657Z,101259.84
2024-03-13T00:59:07.111Z,101267.97
2024-03-13T01:00:12.856Z,101269.81
2024-03-13T01:01:14.442Z,101268.94
2024-03-13T01:02:16.490Z,101265.31
2024-03-13T01:03:20.420Z,101276.19
2024-03-13T01:04:22.213Z,101274.41
2024-03-13T01:05:25.732Z,101268.97
2024-03-13T01:06:30.063Z,101265.31
2024-03-13T01:07:31.586Z,101268.03
2024-03-13T01:08:36.515Z,101270.72
2024-03-13T01:09:39.483Z,101267.13
2024-03-13T01:10:41.366Z,101267.13
2024-03-13T01:11:42.854Z,101271.66
2024-03-13T01:12:45.084Z,101259.00
2024-03-13T01:13:46.676Z,101266.22
2024-03-13T01:14:48.145Z,101269.84
2024-03-13T01:15:49.611Z,101266.25
2024-03-13T01:16:54.176Z,101255.38
2024-03-13T01:17:55.794Z,101268.97
2024-03-13T01:18:58.680Z,101269.88
2024-03-13T01:20:00.240Z,101272.63
2024-03-13T01:21:01.756Z,101254.53
2024-03-13T01:22:14.135Z,101267.16
2024-03-13T01:23:16.698Z,101265.34
2024-03-13T01:24:18.276Z,101267.19
2024-03-13T01:25:20.683Z,101264.47
2024-03-13T01:26:22.380Z,101269.91
2024-03-13T01:27:23.864Z,101269.00
2024-03-13T01:28:25.346Z,101259.03
2024-03-13T01:29:26.842Z,101264.50
2024-03-13T01:30:30.470Z,101270.81
2024-03-13T01:31:32.344Z,101260.88
2024-03-13T01:32:34.220Z,101266.28
2024-03-13T01:33:36.707Z,101265.38
2024-03-13T01:34:38.159Z,101266.28
2024-03-13T01:35:39.677Z,101261.78
2024-03-13T01:36:59.838Z,101266.31
2024-03-13T01:38:02.835Z,101265.38
2024-03-13T01:39:04.541Z,101267.22
2024-03-13T01:40:09.584Z,101269.91
2024-03-13T01:41:29.546Z,101264.50
2024-03-13T01:42:49.428Z,101273.53
2024-03-13T01:44:18.549Z,101281.69
2024-03-13T01:46:03.535Z,101275.38
2024-03-13T01:47:35.624Z,101267.25
2024-03-13T01:48:57.312Z,101269.06
2024-03-13T01:50:17.749Z,101270.88
2024-03-13T01:51:39.072Z,101268.16
2024-03-13T01:52:58.881Z,101259.09
2024-03-13T01:54:18.613Z,101271.75
2024-03-13T01:55:26.869Z,101254.53
2024-03-13T01:56:31.156Z,101266.31
2024-03-13T01:57:57.134Z,101266.34
2024-03-13T01:59:21.358Z,101272.66
2024-03-13T02:00:43.177Z,101262.75
2024-03-13T02:02:03.577Z,101253.69
2024-03-13T02:03:05.394Z,101260.00
2024-03-13T02:04:09.306Z,101260.00
2024-03-13T02:05:10.815Z,101259.97
2024-03-13T02:06:12.541Z,101262.72
2024-03-13T02:07:17.465Z,101263.63
2024-03-13T02:08:20.138Z,101254.59
2024-03-13T02:09:24.691Z,101259.09
2024-03-13T02:10:26.296Z,101272.69
2024-03-13T02:11:27.951Z,101266.38
2024-03-13T02:12:30.644Z,101276.31
2024-03-13T02:13:32.638Z,101263.66
2024-03-13T02:14:38.393Z,101274.50
2024-03-13T02:15:41.477Z,101267.25
2024-03-13T02:16:43.011Z,101270.00
2024-03-13T02:17:44.615Z,101263.66
2024-03-13T02:18:48.366Z,101261.84
2024-03-13T02:19:51.804Z,101257.34
2024-03-13T02:20:53.988Z,101257.34
2024-03-13T02:22:01.311Z,101267.28
2024-03-13T02:23:04.006Z,101261.84
2024-03-13T02:24:06.231Z,101264.56
2024-03-13T02:25:09.607Z,101261.84
2024-03-13T02:26:11.145Z,101260.06
2024-03-13T02:27:13.412Z,101253.72
2024-03-13T02:28:18.570Z,101255.53
2024-03-13T02:29:20.531Z,101260.06
2024-03-13T02:30:22.378Z,101260.06
2024-03-13T02:31:23.970Z,101251.94
2024-03-13T02:32:25.518Z,101256.41
2024-03-13T02:33:27.165Z,101253.72
2024-03-13T02:34:31.174Z,101257.31
2024-03-13T02:35:33.907Z,101258.22
2024-03-13T02:36:35.418Z,101254.63
2024-03-13T02:37:41.262Z,101260.94
2024-03-13T02:38:42.869Z,101262.75
2024-03-13T02:39:47.515Z,101255.53
2024-03-13T02:40:49.158Z,101254.63
2024-03-13T02:41:50.813Z,101260.06
2024-03-13T02:42:54.342Z,101260.94
2024-03-13T02:43:59.815Z,101260.97
2024-03-13T02:45:01.323Z,101270.00
2024-03-13T02:46:03.731Z,101265.47
2024-03-13T02:47:05.586Z,101263.66
2024-03-13T02:48:07.796Z,101269.97
2024-03-13T02:49:09.309Z,101261.84
2024-03-13T02:50:13.144Z,101258.25
2024-03-13T02:51:14.798Z,101258.25
2024-03-13T02:52:16.390Z,101256.44
2024-03-13T02:53:19.545Z,101259.16
2024-03-13T02:54:21.038Z,101256.47
2024-03-13T02:55:22.593Z,101270.03
2024-03-13T02:56:24.091Z,101260.09
2024-03-13T02:57:26.378Z,101258.28
2024-03-13T02:58:27.959Z,101258.25
2024-03-13T02:59:29.514Z,101254.66
2024-03-13T03:00:31.534Z,101252.84
2024-03-13T03:01:33.030Z,101254.66
2024-03-13T03:02:36.167Z,101251.97
2024-03-13T03:03:37.677Z,101254.72
2024-03-13T03:04:39.178Z,101256.50
2024-03-13T03:05:40.682Z,101260.13
2024-03-13T03:06:42.194Z,101252.00
2024-03-13T03:07:44.580Z,101254.72
2024-03-13T03:08:46.620Z,101260.13
2024-03-13T03:09:48.007Z,101268.25
2024-03-13T03:10:49.945Z,101264.63
2024-03-13T03:11:51.826Z,101266.47
2024-03-13T03:12:56.394Z,101273.66
2024-03-13T03:13:57.869Z,101261.91
2024-03-13T03:15:04.132Z,101267.31
2024-03-13T03:16:11.538Z,101270.03
2024-03-13T03:17:15.687Z,101266.44
2024-03-13T03:18:19.052Z,101275.47
2024-03-13T03:19:24.662Z,101273.66
2024-03-13T03:20:26.267Z,101270.03
2024-03-13T03:21:28.246Z,101282.66
2024-03-13T03:22:30.038Z,101276.34
2024-03-13T03:23:31.503Z,101274.53
2024-03-13T03:24:32.954Z,101274.50
2024-03-13T03:25:34.439Z,101274.50
2024-03-13T03:26:35.911Z,101276.31
2024-03-13T03:27:37.565Z,101279.91
2024-03-13T03:28:39.025Z,101271.75
2024-03-13T03:29:41.961Z,101270.84
2024-03-13T03:30:44.041Z,101274.44
2024-03-13T03:31:45.632Z,101272.66
2024-03-13T03:32:47.139Z,101267.19
2024-03-13T03:33:48.651Z,101269.91
2024-03-13T03:34:50.140Z,101276.22
2024-03-13T03:35:51.737Z,101258.13
2024-03-13T03:36:54.348Z,101254.50
2024-03-13T03:37:55.879Z,101279.78
2024-03-13T03:38:57.427Z,101274.34
2024-03-13T03:39:58.952Z,101276.13
2024-03-13T03:41:01.048Z,101279.75
2024-03-13T03:42:05.323Z,101277.88
2024-03-13T03:43:06.969Z,101277.84
2024-03-13T03:44:12.290Z,101276.97
2024-03-13T03:45:14.514Z,101277.84
2024-03-13T03:46:16.204Z,101279.63
2024-03-13T03:47:17.660Z,101279.63
2024-03-13T03:48:22.844Z,101283.19
2024-03-13T03:49:24.509Z,101275.97
2024-03-13T03:50:27.083Z,101279.56
2024-03-13T03:51:28.562Z,101277.78
2024-03-13T03:52:30.116Z,101279.56
2024-03-13T03:53:31.599Z,101275.91
2024-03-13T03:54:33.068Z,101276.81
2024-03-13T03:55:34.583Z,101281.31
2024-03-13T03:56:40.517Z,101270.44
2024-03-13T03:57:42.593Z,101276.69
2024-03-13T03:58:44.063Z,101273.00
2024-03-13T03:59:45.527Z,101277.50
2024-03-13T04:00:47.341Z,101276.53
2024-03-13T04:01:50.643Z,101281.00
2024-03-13T04:02:52.925Z,101271.91
2024-03-13T04:03:54.557Z,101274.56
2024-03-13T04:04:56.099Z,101268.25
2024-03-13T04:05:58.213Z,101270.88
2024-03-13T04:06:59.623Z,101275.34
2024-03-13T04:08:01.133Z,101268.97
2024-03-13T04:09:15.693Z,101268.00
2024-03-13T04:10:17.457Z,101279.69
2024-03-13T04:11:21.972Z,101276.03
2024-03-13T04:12:25.452Z,101279.56
2024-03-13T04:13:26.946Z,101278.63
2024-03-13T04:14:28.431Z,101285.81
2024-03-13T04:15:30.061Z,101276.75
2024-03-13T04:16:32.321Z,101293.91
2024-03-13T04:17:34.918Z,101293.91
2024-03-13T04:18:39.048Z,101294.81
2024-03-13T04:19:40.933Z,101292.97
2024-03-13T04:20:44.218Z,101290.25
2024-03-13T04:21:46.351Z,101293.78
2024-03-13T04:22:48.052Z,101298.25
2024-03-13T04:23:50.719Z,101296.41
2024-03-13T04:24:52.585Z,101298.25
2024-03-13T04:25:54.110Z,101292.78
2024-03-13T04:26:55.565Z,101303.63
2024-03-13T04:27:57.209Z,101299.00
2024-03-13T04:28:59.588Z,101296.31
2024-03-13T04:30:01.498Z,101304.34
2024-03-13T04:31:03.124Z,101303.41
2024-03-13T04:32:05.598Z,101298.78
2024-03-13T04:33:07.309Z,101303.31
2024-03-13T04:34:11.311Z,101302.34
2024-03-13T04:35:16.651Z,101312.28
2024-03-13T04:36:18.144Z,101318.59
2024-03-13T04:37:24.277Z,101310.41
2024-03-13T04:38:26.165Z,101310.38
2024-03-13T04:39:27.654Z,101309.38
2024-03-13T04:40:29.231Z,101305.81
2024-03-13T04:41:34.520Z,101300.38
2024-03-13T04:42:36.034Z,101307.56
2024-03-13T04:43:37.489Z,101306.72
2024-03-13T04:44:38.951Z,101307.63
2024-03-13T04:45:40.414Z,101304.00
2024-03-13T04:46:44.551Z,101303.13
2024-03-13T04:47:46.043Z,101303.00
2024-03-13T04:48:47.698Z,101311.03
2024-03-13T04:49:49.415Z,101311.88
2024-03-13T04:50:50.849Z,101308.19
2024-03-13T04:51:52.368Z,101315.38
2024-03-13T04:52:54.671Z,101322.53
2024-03-13T04:53:56.223Z,101317.03
2024-03-13T04:55:00.446Z,101310.66
2024-03-13T04:56:01.924Z,101319.69
2024-03-13T04:57:04.427Z,101313.31
2024-03-13T04:58:06.264Z,101316.91
2024-03-13T04:59:07.779Z,101319.53
2024-03-13T05:00:09.629Z,101320.38
2024-03-13T05:01:20.735Z,101317.66
2024-03-13T05:02:22.272Z,101315.81
2024-03-13T05:03:23.725Z,101320.25
2024-03-13T05:04:25.375Z,101325.59
2024-03-13T05:05:26.989Z,101321.91
2024-03-13T05:06:28.478Z,101327.25
2024-03-13T05:07:30.117Z,101329.91
2024-03-13T05:08:31.614Z,101332.59
2024-03-13T05:09:33.141Z,101330.72
2024-03-13T05:10:34.615Z,101339.69
2024-03-13T05:11:36.208Z,101339.66
2024-03-13T05:12:38.692Z,101343.28
2024-03-13T05:13:40.160Z,101333.38
2024-03-13T05:14:41.634Z,101348.72
2024-03-13T05:15:44.728Z,101333.44
2024-03-13T05:16:46.547Z,101335.22
2024-03-13T05:17:50.681Z,101334.38
2024-03-13T05:18:53.530Z,101335.16
2024-03-13T05:19:55.284Z,101340.47
2024-03-13T05:20:56.710Z,101339.50
2024-03-13T05:22:01.070Z,101334.13
2024-03-13T05:23:07.555Z,101335.94
2024-03-13T05:24:10.028Z,101334.06
2024-03-13T05:25:20.483Z,101330.44
2024-03-13T05:26:22.098Z,101334.84
2024-03-13T05:27:24.009Z,101339.28
2024-03-13T05:28:26.381Z,101329.47
2024-03-13T05:29:28.281Z,101327.59
2024-03-13T05:30:30.602Z,101340.19
2024-03-13T05:31:32.117Z,101333.91
2024-03-13T05:32:33.622Z,101332.16
2024-03-13T05:33:39.484Z,101333.03
2024-03-13T05:34:41.152Z,101338.41
2024-03-13T05:35:43.519Z,101333.03
2024-03-13T05:36:44.963Z,101334.81
2024-03-13T05:37:47.454Z,101330.28
2024-03-13T05:38:48.933Z,101333.97
2024-03-13T05:39:53.520Z,101324.91
2024-03-13T05:40:55.259Z,101334.84
2024-03-13T05:41:56.945Z,101336.69
2024-03-13T05:42:58.419Z,101335.72
2024-03-13T05:44:00.875Z,101338.38
2024-03-13T05:45:02.941Z,101335.66
2024-03-13T05:46:06.347Z,101338.31
2024-03-13T05:47:08.030Z,101344.63
2024-03-13T05:48:09.644Z,101335.66
2024-03-13T05:49:12.310Z,101341.09
2024-03-13T05:50:14.065Z,101337.59
2024-03-13T05:51:15.747Z,101346.53
2024-03-13T05:52:17.403Z,101343.75
2024-03-13T05:53:18.932Z,101339.28
2024-03-13T05:54:20.498Z,101334.75
2024-03-13T05:55:22.641Z,101343.81
2024-03-13T05:56:24.214Z,101349.25
2024-03-13T05:57:25.804Z,101342.97
2024-03-13T05:58:27.445Z,101342.13
2024-03-13T05:59:28.968Z,101346.69
2024-03-13T06:00:30.454Z,101337.72
2024-03-13T06:01:32.078Z,101341.38
2024-03-13T06:02:34.459Z,101357.59
2024-03-13T06:03:37.613Z,101351.34
2024-03-13T06:04:39.178Z,101351.38
2024-03-13T06:05:40.677Z,101352.25
2024-03-13T06:06:42.148Z,101356.78
2024-03-13T06:07:43.777Z,101353.25
2024-03-13T06:08:45.230Z,101353.38
2024-03-13T06:09:46.699Z,101341.66
2024-03-13T06:10:49.417Z,101357.97
2024-03-13T06:11:51.026Z,101358.00
2024-03-13T06:12:52.592Z,101346.38
2024-03-13T06:13:55.035Z,101346.44
2024-03-13T06:14:56.583Z,101350.94
2024-03-13T06:15:58.085Z,101351.06
2024-03-13T06:16:59.630Z,101338.50
2024-03-13T06:18:01.261Z,101353.84
2024-03-13T06:19:02.867Z,101349.41
2024-03-13T06:20:07.570Z,101353.06
2024-03-13T06:21:09.168Z,101361.16
2024-03-13T06:22:11.713Z,101352.19
2024-03-13T06:23:16.527Z,101359.41
2024-03-13T06:24:24.250Z,101358.53
2024-03-13T06:25:27.805Z,101353.19
2024-03-13T06:26:29.429Z,101362.22
2024-03-13T06:27:30.890Z,101362.25
2024-03-13T06:28:50.850Z,101361.47
2024-03-13T06:30:02.399Z,101359.72
2024-03-13T06:31:04.254Z,101364.25
2024-03-13T06:32:07.497Z,101366.13
2024-03-13T06:33:12.331Z,101358.03
2024-03-13T06:34:13.952Z,101360.75
2024-03-13T06:35:15.458Z,101366.16
2024-03-13T06:36:17.247Z,101360.84
2024-03-13T06:37:18.989Z,101368.19
2024-03-13T06:38:21.012Z,101358.31
2024-03-13T06:39:22.642Z,101361.13
2024-03-13T06:40:24.291Z,101359.44
2024-03-13T06:41:25.804Z,101366.72
2024-03-13T06:42:27.622Z,101358.75
2024-03-13T06:43:29.284Z,101354.34
2024-03-13T06:44:30.952Z,101355.31
2024-03-13T06:45:39.115Z,101359.88
2024-03-13T06:46:41.889Z,101358.09
2024-03-13T06:47:43.415Z,101362.78
2024-03-13T06:48:44.914Z,101372.78
2024-03-13T06:49:46.639Z,101362.06
2024-03-13T06:50:48.936Z,101367.53
2024-03-13T06:51:50.529Z,101363.97
2024-03-13T06:52:52.632Z,101367.63
2024-03-13T06:53:54.002Z,101369.47
2024-03-13T06:54:55.931Z,101362.28
2024-03-13T06:55:57.416Z,101367.75
2024-03-13T06:56:58.956Z,101366.06
2024-03-13T06:58:00.495Z,101360.75
2024-03-13T06:59:02.211Z,101366.31
2024-03-13T07:00:04.699Z,101370.03
2024-03-13T07:01:17.253Z,101366.56
2024-03-13T07:02:18.905Z,101375.59
2024-03-13T07:03:20.485Z,101369.28
2024-03-13T07:04:23.472Z,101365.72
2024-03-13T07:05:25.047Z,101365.72
2024-03-13T07:06:29.289Z,101375.66
2024-03-13T07:07:31.641Z,101364.81
2024-03-13T07:08:33.475Z,101370.28
2024-03-13T07:09:35.111Z,101366.66
2024-03-13T07:10:36.881Z,101373.91
2024-03-13T07:11:38.548Z,101365.81
2024-03-13T07:12:40.252Z,101371.22
2024-03-13T07:13:41.724Z,101373.94
2024-03-13T07:14:43.168Z,101368.53
2024-03-13T07:15:44.648Z,101366.75
2024-03-13T07:16:46.653Z,101372.16
2024-03-13T07:17:51.626Z,101374.88
2024-03-13T07:18:53.170Z,101360.41
2024-03-13T07:19:54.817Z,101371.28
2024-03-13T07:20:56.578Z,101368.56
2024-03-13T07:21:58.081Z,101375.78
2024-03-13T07:22:59.550Z,101368.56
2024-03-13T07:24:01.041Z,101372.19
2024-03-13T07:25:03.564Z,101369.50
2024-03-13T07:26:08.544Z,101360.47
2024-03-13T07:27:10.040Z,101373.13
2024-03-13T07:28:12.664Z,101374.06
2024-03-13T07:29:14.221Z,101374.06
2024-03-13T07:30:15.958Z,101378.63
2024-03-13T07:31:17.473Z,101362.34
2024-03-13T07:32:19.047Z,101367.75
2024-03-13T07:33:20.775Z,101369.56
2024-03-13T07:34:22.300Z,101375.00
2024-03-13T07:35:26.051Z,101367.75
2024-03-13T07:36:28.457Z,101372.28
2024-03-13T07:37:30.279Z,101375.91
2024-03-13T07:38:34.862Z,101371.41
2024-03-13T07:39:36.438Z,101375.94
2024-03-13T07:40:41.689Z,101375.91
2024-03-13T07:41:43.213Z,101370.47
2024-03-13T07:42:44.802Z,101377.72
2024-03-13T07:43:46.695Z,101378.63
2024-03-13T07:44:48.247Z,101356.00
2024-03-13T07:45:49.873Z,101375.00
2024-03-13T07:46:52.585Z,101368.66
2024-03-13T07:47:54.201Z,101370.44
2024-03-13T07:48:55.813Z,101373.16
2024-03-13T07:49:57.347Z,101366.81
2024-03-13T07:50:58.838Z,101359.56
2024-03-13T07:52:02.728Z,101355.91
2024-03-13T07:53:05.569Z,101370.38
2024-03-13T07:54:08.708Z,101371.25
2024-03-13T07:55:12.635Z,101358.56
2024-03-13T07:56:14.175Z,101362.19
2024-03-13T07:57:15.735Z,101371.25
2024-03-13T07:58:17.311Z,101370.31
2024-03-13T07:59:18.834Z,101366.69
2024-03-13T08:00:23.367Z,101363.94
2024-03-13T08:01:25.232Z,101361.16
2024-03-13T08:02:26.853Z,101370.19
2024-03-13T08:03:29.073Z,101369.25
2024-03-13T08:04:30.648Z,101372.88
2024-03-13T08:05:33.204Z,101369.19
2024-03-13T09:06:18.465Z,101352.19
2024-03-13T09:07:19.970Z,101348.31
2024-03-13T09:08:35.258Z,101350.13
2024-03-13T09:09:43.046Z,101351.78
2024-03-13T09:10:44.667Z,101347.81
2024-03-13T09:11:47.146Z,101342.34
2024-03-13T09:12:51.742Z,101345.66
2024-03-13T09:13:54.724Z,101353.03
2024-03-13T09:14:56.368Z,101341.00
2024-03-13T09:16:02.213Z,101336.94
2024-03-13T09:17:06.674Z,101341.38
2024-03-13T09:18:08.513Z,101343.44
2024-03-13T09:19:10.613Z,101342.59
2024-03-13T09:20:15.499Z,101345.03
2024-03-13T09:21:17.872Z,101350.34
2024-03-13T09:22:19.996Z,101351.28
2024-03-13T09:23:21.489Z,101344.84
2024-03-13T09:24:23.189Z,101346.78
2024-03-13T09:25:25.137Z,101343.72
2024-03-13T09:26:26.823Z,101348.34
2024-03-13T09:27:28.567Z,101355.50
2024-03-13T09:28:30.454Z,101351.94
2024-03-13T09:29:32.993Z,101350.50
2024-03-13T09:30:34.538Z,101345.63
2024-03-13T09:31:39.789Z,101360.47
2024-03-13T09:32:42.217Z,101352.00
2024-03-13T09:33:43.925Z,101344.19
2024-03-13T09:34:45.445Z,101341.69
2024-03-13T09:35:47.037Z,101346.56
2024-03-13T09:36:48.830Z,101352.63
2024-03-13T09:37:50.280Z,101350.50
2024-03-13T09:38:52.036Z,101347.81
2024-03-13T09:39:53.667Z,101347.69
2024-03-13T09:40:55.208Z,101340.41
2024-03-13T09:41:58.738Z,101340.06
2024-03-13T09:43:04.724Z,101346.94
2024-03-13T09:44:07.592Z,101338.63
2024-03-13T09:45:15.330Z,101334.66
2024-03-13T09:46:18.045Z,101330.63
2024-03-13T09:47:20.913Z,101328.56
2024-03-13T09:48:22.915Z,101329.75
2024-03-13T09:49:28.567Z,101329.31
2024-03-13T09:50:37.534Z,101326.13
2024-03-13T09:51:46.821Z,101327.09
2024-03-13T09:52:54.795Z,101321.22
2024-03-13T09:53:59.908Z,101335.31
2024-03-13T09:55:04.859Z,101323.38
2024-03-13T09:56:11.939Z,101327.44
2024-03-13T09:57:15.227Z,101322.66
2024-03-13T09:58:17.133Z,101331.38
2024-03-13T09:59:18.634Z,101326.31
2024-03-13T10:00:20.612Z,101323.38
2024-03-13T10:01:28.143Z,101326.09
2024-03-13T10:02:37.729Z,101312.91
2024-03-13T10:03:43.811Z,101319.59
2024-03-13T10:04:46.606Z,101320.88
2024-03-13T10:05:53.824Z,101313.97
2024-03-13T10:07:00.111Z,101317.84
2024-03-13T10:08:04.346Z,101316.22
2024-03-13T10:09:13.730Z,101314.50
2024-03-13T10:10:25.087Z,101317.56
2024-03-13T10:11:27.377Z,101323.34
2024-03-13T10:12:29.019Z,101319.06
2024-03-13T10:13:30.787Z,101304.88
2024-03-13T10:14:33.099Z,101317.38
2024-03-13T10:15:34.911Z,101312.94
2024-03-13T10:16:37.019Z,101320.59
2024-03-13T10:17:41.973Z,101312.66
2024-03-13T10:18:50.700Z,101323.56
2024-03-13T10:19:55.448Z,101313.31
2024-03-13T10:21:09.649Z,101324.34
2024-03-13T10:22:12.440Z,101322.31
2024-03-13T10:23:16.084Z,101312.47
2024-03-13T10:24:20.111Z,101307.47
2024-03-13T10:25:21.715Z,101317.00
2024-03-13T10:26:25.178Z,101316.72
2024-03-13T10:27:28.061Z,101319.63
2024-03-13T10:28:30.928Z,101312.09
2024-03-13T10:29:35.796Z,101316.81
2024-03-13T10:30:37.578Z,101316.72
2024-03-13T10:31:39.439Z,101307.41
2024-03-13T10:32:41.943Z,101308.69
2024-03-13T10:33:43.842Z,101307.66
2024-03-13T10:34:46.618Z,101295.44
2024-03-13T10:35:48.121Z,101302.59
2024-03-13T10:36:57.870Z,101295.44
2024-03-13T10:38:11.949Z,101286.75
2024-03-13T10:39:13.635Z,101288.13
2024-03-13T10:40:17.899Z,101286.81
2024-03-13T10:41:19.379Z,101278.50
2024-03-13T10:42:20.907Z,101283.72
2024-03-13T10:43:22.459Z,101280.53
2024-03-13T10:44:25.316Z,101290.53
2024-03-13T10:45:26.906Z,101294.72
2024-03-13T10:46:28.430Z,101270.44
2024-03-13T10:47:29.949Z,101286.75
2024-03-13T10:48:31.528Z,101289.94
2024-03-13T10:49:33.043Z,101288.66
2024-03-13T10:50:35.097Z,101285.13
2024-03-13T10:51:36.644Z,101288.72
2024-03-13T10:52:40.848Z,101283.59
2024-03-13T10:53:45.469Z,101278.13
2024-03-13T10:54:47.317Z,101274.38
2024-03-13T10:55:48.745Z,101284.06
2024-03-13T10:56:53.599Z,101274.94
2024-03-13T10:57:55.149Z,101279.13
2024-03-13T10:58:58.462Z,101279.03
2024-03-13T11:00:01.333Z,101280.53
2024-03-13T11:01:03.064Z,101282.25
2024-03-13T11:02:05.003Z,101276.53
2024-03-13T11:03:11.855Z,101278.34
2024-03-13T11:04:16.067Z,101273.47
2024-03-13T11:05:18.351Z,101278.44
2024-03-13T11:06:19.916Z,101261.16
2024-03-13T11:07:22.528Z,101268.34
2024-03-13T11:08:27.947Z,101269.59
2024-03-13T11:09:29.483Z,101266.94
2024-03-13T11:10:31.004Z,101269.19
2024-03-13T11:11:36.214Z,101275.47
2024-03-13T11:12:41.246Z,101274.19
2024-03-13T11:13:51.180Z,101262.44
2024-03-13T11:14:57.115Z,101260.28
2024-03-13T11:16:02.242Z,101240.47
2024-03-13T11:17:06.916Z,101255.38
2024-03-13T11:18:10.532Z,101254.88
2024-03-13T11:19:17.834Z,101255.22
2024-03-13T11:20:22.465Z,101248.19
2024-03-13T11:21:47.520Z,101261.38
2024-03-13T11:23:05.039Z,101254.13
2024-03-13T11:24:12.584Z,101261.63
2024-03-13T11:25:18.817Z,101270.47
2024-03-13T11:26:22.538Z,101251.75
2024-03-13T11:27:28.170Z,101263.00
2024-03-13T11:28:33.131Z,101263.06
2024-03-13T11:29:44.711Z,101260.97
2024-03-13T11:30:48.698Z,101260.59
2024-03-13T11:31:53.662Z,101272.63
2024-03-13T11:32:56.543Z,101271.72
2024-03-13T11:33:59.838Z,101267.91
2024-03-13T11:35:01.463Z,101251.13
2024-03-13T11:36:04.385Z,101257.38
2024-03-13T11:37:08.327Z,101252.28
2024-03-13T11:38:11.580Z,101251.81
2024-03-13T11:39:17.170Z,101263.84
2024-03-13T11:40:19.486Z,101257.88
2024-03-13T11:41:21.756Z,101260.22
2024-03-13T11:42:30.324Z,101256.31
2024-03-13T11:43:33.252Z,101261.06
2024-03-13T11:44:37.832Z,101255.19
2024-03-13T11:45:45.673Z,101256.47
2024-03-13T11:46:49.614Z,101257.50
2024-03-13T11:48:02.239Z,101258.47
2024-03-13T11:49:04.828Z,101245.47
2024-03-13T11:50:11.783Z,101253.16
2024-03-13T11:51:15.309Z,101254.78
2024-03-13T11:52:17.094Z,101262.88
2024-03-13T11:53:19.436Z,101247.78
2024-03-13T11:54:30.821Z,101253.47
2024-03-13T11:55:32.310Z,101252.31
2024-03-13T11:56:34.926Z,101249.72
2024-03-13T11:57:36.458Z,101248.50
2024-03-13T11:58:40.124Z,101251.41
2024-03-13T11:59:53.075Z,101249.81
2024-03-13T12:00:55.481Z,101245.59
2024-03-13T12:01:56.992Z,101239.63
2024-03-13T12:02:58.544Z,101250.19
2024-03-13T12:04:04.862Z,101231.00
2024-03-13T12:05:08.101Z,101242.81
2024-03-13T12:06:25.021Z,101238.03
2024-03-13T12:07:26.555Z,101237.03
2024-03-13T12:08:28.790Z,101238.22
2024-03-13T12:09:31.530Z,101237.09
2024-03-13T12:10:33.079Z,101236.91
2024-03-13T12:11:34.796Z,101231.91
2024-03-13T12:12:36.334Z,101231.69
2024-03-13T12:13:38.682Z,101234.50
2024-03-13T12:14:41.104Z,101222.66
2024-03-13T12:15:45.740Z,101224.28
2024-03-13T12:16:48.475Z,101223.84
2024-03-13T12:17:56.483Z,101223.50
2024-03-13T12:18:58.183Z,101218.94
2024-03-13T12:19:59.800Z,101220.25
2024-03-13T12:21:02.951Z,101212.91
2024-03-13T12:22:04.729Z,101222.28
2024-03-13T12:23:09.520Z,101213.28
2024-03-13T12:24:13.011Z,101221.09
2024-03-13T12:25:14.747Z,101214.97
2024-03-13T12:26:16.980Z,101210.53
2024-03-13T12:27:19.379Z,101211.19
2024-03-13T12:28:24.081Z,101211.19
2024-03-13T12:29:29.122Z,101217.84
2024-03-13T12:30:38.797Z,101214.34
2024-03-13T12:31:41.858Z,101204.69
2024-03-13T12:32:43.446Z,101202.53
2024-03-13T12:33:48.629Z,101207.56
2024-03-13T12:34:50.870Z,101203.97
2024-03-13T12:36:00.139Z,101211.09
2024-03-13T12:37:01.713Z,101213.72
2024-03-13T12:38:03.239Z,101205.88
2024-03-13T12:39:04.771Z,101209.25
2024-03-13T12:40:10.037Z,101209.69
2024-03-13T12:41:13.115Z,101203.91
2024-03-13T12:42:15.348Z,101207.78
2024-03-13T12:43:17.721Z,101205.00
2024-03-13T12:44:19.625Z,101188.34
2024-03-13T12:45:21.517Z,101197.75
2024-03-13T12:46:23.133Z,101196.59
2024-03-13T12:47:27.288Z,101184.09
2024-03-13T12:48:34.534Z,101194.88
2024-03-13T12:49:36.273Z,101199.41
2024-03-13T12:50:37.921Z,101195.94
2024-03-13T12:51:40.178Z,101199.31
2024-03-13T12:52:42.950Z,101196.31
2024-03-13T12:53:46.135Z,101205.69
2024-03-13T12:54:48.240Z,101200.56
2024-03-13T12:55:49.773Z,101203.47
2024-03-13T12:56:52.104Z,101195.59
2024-03-13T12:58:01.890Z,101187.47
2024-03-13T12:59:03.352Z,101194.47
2024-03-13T13:00:15.080Z,101202.38
2024-03-13T13:01:17.933Z,101197.53
2024-03-13T13:02:23.453Z,101192.31
2024-03-13T13:03:24.973Z,101196.75
2024-03-13T13:04:27.026Z,101186.97